Valley Bend, West Virginia
Current Conditions -  °F | °C
As of 7:30 AM on Friday 28 Nov 2014 (Local Time) from KEKN Reporting Station
Light Snow Light Snow  
Wind Chill: 17°   Ceiling: 4100
Heat Index: 23°   Visibility: 7mi
Dew Point: 19°   Wind: 5mph
Humidity: 85%   Direction: NA
Pressure: 30.28"   Gusts: NA
Location:  39.06°N, 79.97°W
Report Text: KEKN 281230Z AUTO VRB04KT 7SM -SN SCT019 OVC041 M05/M07 A3028 RMK AO2 P0000 T10501072 TSNO
Loading
Personal Weather Stations






























Interactive Weather Map New forecast layout! Learn more

10-Day Weather Forecast

Advertisements
Track Severe Weather on mobile